sensor_id;sensor_type;location;lat;lon;timestamp;pressure;altitude;pressure_sealevel;temperature;humidity
37972;BME280;23794;48.234;8.344;2023-02-16T00:01:53;95242.50;;;0.76;65.80
37972;BME280;23794;48.234;8.344;2023-02-16T00:04:26;95237.28;;;0.80;65.42
37972;BME280;23794;48.234;8.344;2023-02-16T00:06:54;95232.69;;;0.80;66.39
37972;BME280;23794;48.234;8.344;2023-02-16T00:09:21;95240.63;;;0.85;66.45
37972;BME280;23794;48.234;8.344;2023-02-16T00:11:49;95230.81;;;0.98;66.91
37972;BME280;23794;48.234;8.344;2023-02-16T00:14:37;95232.41;;;0.99;66.56
37972;BME280;23794;48.234;8.344;2023-02-16T00:17:04;95237.78;;;0.90;66.49
37972;BME280;23794;48.234;8.344;2023-02-16T00:19:36;95229.53;;;0.96;67.41
37972;BME280;23794;48.234;8.344;2023-02-16T00:22:04;95229.56;;;1.04;66.96
37972;BME280;23794;48.234;8.344;2023-02-16T00:24:31;95235.94;;;1.09;66.69
37972;BME280;23794;48.234;8.344;2023-02-16T00:26:59;95239.72;;;1.08;67.41
37972;BME280;23794;48.234;8.344;2023-02-16T00:29:29;95229.09;;;1.11;67.49
37972;BME280;23794;48.234;8.344;2023-02-16T00:31:57;95222.44;;;1.17;67.71
37972;BME280;23794;48.234;8.344;2023-02-16T00:34:42;95230.22;;;1.28;68.30
37972;BME280;23794;48.234;8.344;2023-02-16T00:37:11;95232.78;;;1.33;68.32
37972;BME280;23794;48.234;8.344;2023-02-16T00:39:39;95230.06;;;1.33;68.07
37972;BME280;23794;48.234;8.344;2023-02-16T00:44:42;95227.88;;;1.52;67.83
37972;BME280;23794;48.234;8.344;2023-02-16T00:49:42;95230.56;;;1.52;68.47
37972;BME280;23794;48.234;8.344;2023-02-16T00:54:46;95218.63;;;1.53;68.58
37972;BME280;23794;48.234;8.344;2023-02-16T00:57:16;95223.41;;;1.65;68.41
37972;BME280;23794;48.234;8.344;2023-02-16T00:59:45;95232.16;;;1.62;67.90
37972;BME280;23794;48.234;8.344;2023-02-16T01:02:12;95236.13;;;1.56;67.74
37972;BME280;23794;48.234;8.344;2023-02-16T01:04:38;95232.31;;;1.57;67.68
37972;BME280;23794;48.234;8.344;2023-02-16T01:07:10;95241.06;;;1.54;67.44
37972;BME280;23794;48.234;8.344;2023-02-16T01:09:55;95233.41;;;1.47;67.92
37972;BME280;23794;48.234;8.344;2023-02-16T01:12:41;95229.44;;;1.53;68.13
37972;BME280;23794;48.234;8.344;2023-02-16T01:15:13;95230.56;;;1.61;67.54
37972;BME280;23794;48.234;8.344;2023-02-16T01:17:40;95226.25;;;1.69;67.73
37972;BME280;23794;48.234;8.344;2023-02-16T01:20:20;95222.59;;;1.74;67.41
37972;BME280;23794;48.234;8.344;2023-02-16T01:22:47;95222.47;;;1.79;67.21
37972;BME280;23794;48.234;8.344;2023-02-16T01:25:14;95214.50;;;1.82;67.25
37972;BME280;23794;48.234;8.344;2023-02-16T01:27:41;95211.59;;;1.96;66.75
37972;BME280;23794;48.234;8.344;2023-02-16T01:30:17;95217.13;;;2.17;66.03
37972;BME280;23794;48.234;8.344;2023-02-16T01:32:44;95209.66;;;2.14;66.21
37972;BME280;23794;48.234;8.344;2023-02-16T01:35:23;95209.38;;;1.98;66.50
37972;BME280;23794;48.234;8.344;2023-02-16T01:37:50;95218.94;;;1.87;66.70
37972;BME280;23794;48.234;8.344;2023-02-16T01:43:18;95208.16;;;1.69;67.14
37972;BME280;23794;48.234;8.344;2023-02-16T01:45:50;95208.78;;;1.66;66.83
37972;BME280;23794;48.234;8.344;2023-02-16T01:48:24;95211.84;;;1.56;67.55
37972;BME280;23794;48.234;8.344;2023-02-16T01:51:11;95214.53;;;1.56;67.45
37972;BME280;23794;48.234;8.344;2023-02-16T01:53:43;95210.25;;;1.55;67.11
37972;BME280;23794;48.234;8.344;2023-02-16T01:56:35;95215.31;;;1.57;66.91
37972;BME280;23794;48.234;8.344;2023-02-16T01:59:10;95215.47;;;1.51;67.57
37972;BME280;23794;48.234;8.344;2023-02-16T02:01:59;95208.81;;;1.49;67.27
37972;BME280;23794;48.234;8.344;2023-02-16T02:04:44;95205.63;;;1.47;67.33
37972;BME280;23794;48.234;8.344;2023-02-16T02:07:48;95205.13;;;1.53;67.14
37972;BME280;23794;48.234;8.344;2023-02-16T02:13:00;95202.91;;;1.56;66.90
37972;BME280;23794;48.234;8.344;2023-02-16T02:15:31;95198.16;;;1.52;67.03
37972;BME280;23794;48.234;8.344;2023-02-16T02:17:59;95196.72;;;1.46;67.07
37972;BME280;23794;48.234;8.344;2023-02-16T02:20:51;95204.81;;;1.37;67.59
37972;BME280;23794;48.234;8.344;2023-02-16T02:32:57;95204.19;;;1.23;67.64
37972;BME280;23794;48.234;8.344;2023-02-16T02:35:57;95197.53;;;1.20;67.38
37972;BME280;23794;48.234;8.344;2023-02-16T02:41:03;95184.50;;;1.22;67.48
37972;BME280;23794;48.234;8.344;2023-02-16T02:43:56;95189.88;;;1.14;67.79
37972;BME280;23794;48.234;8.344;2023-02-16T02:46:36;95202.59;;;1.13;67.53
37972;BME280;23794;48.234;8.344;2023-02-16T02:49:03;95198.47;;;1.16;67.19
37972;BME280;23794;48.234;8.344;2023-02-16T02:51:30;95189.59;;;1.24;66.85
37972;BME280;23794;48.234;8.344;2023-02-16T02:57:12;95186.84;;;1.15;67.16
37972;BME280;23794;48.234;8.344;2023-02-16T03:00:05;95188.63;;;1.02;67.55
37972;BME280;23794;48.234;8.344;2023-02-16T03:03:00;95187.34;;;1.00;67.71
37972;BME280;23794;48.234;8.344;2023-02-16T03:05:30;95189.06;;;0.96;67.64
37972;BME280;23794;48.234;8.344;2023-02-16T03:08:02;95189.72;;;0.93;67.92
37972;BME280;23794;48.234;8.344;2023-02-16T03:10:34;95185.22;;;0.79;68.63
37972;BME280;23794;48.234;8.344;2023-02-16T03:13:24;95189.03;;;0.78;68.52
37972;BME280;23794;48.234;8.344;2023-02-16T03:15:53;95189.50;;;0.80;67.76
37972;BME280;23794;48.234;8.344;2023-02-16T03:18:23;95187.47;;;0.77;68.43
37972;BME280;23794;48.234;8.344;2023-02-16T03:21:12;95185.22;;;0.79;67.93
37972;BME280;23794;48.234;8.344;2023-02-16T03:24:00;95192.69;;;0.73;68.25
37972;BME280;23794;48.234;8.344;2023-02-16T03:26:47;95185.88;;;0.76;68.48
37972;BME280;23794;48.234;8.344;2023-02-16T03:29:36;95196.66;;;0.85;68.26
37972;BME280;23794;48.234;8.344;2023-02-16T03:32:03;95191.13;;;0.90;67.95
37972;BME280;23794;48.234;8.344;2023-02-16T03:34:30;95195.91;;;0.93;67.89
37972;BME280;23794;48.234;8.344;2023-02-16T03:36:58;95198.75;;;0.97;67.77
37972;BME280;23794;48.234;8.344;2023-02-16T03:39:27;95205.25;;;0.96;67.74
37972;BME280;23794;48.234;8.344;2023-02-16T03:41:55;95195.88;;;0.84;68.06
37972;BME280;23794;48.234;8.344;2023-02-16T03:44:22;95198.59;;;0.84;68.03
37972;BME280;23794;48.234;8.344;2023-02-16T03:46:50;95193.34;;;0.88;68.00
37972;BME280;23794;48.234;8.344;2023-02-16T03:49:18;95186.38;;;0.87;67.62
37972;BME280;23794;48.234;8.344;2023-02-16T03:51:44;95199.69;;;0.92;67.70
37972;BME280;23794;48.234;8.344;2023-02-16T03:54:11;95198.44;;;0.89;67.87
37972;BME280;23794;48.234;8.344;2023-02-16T03:56:38;95201.63;;;0.92;67.82
37972;BME280;23794;48.234;8.344;2023-02-16T03:59:04;95200.50;;;0.93;67.95
37972;BME280;23794;48.234;8.344;2023-02-16T04:01:31;95199.22;;;0.90;67.92
37972;BME280;23794;48.234;8.344;2023-02-16T04:03:57;95202.69;;;0.82;68.19
37972;BME280;23794;48.234;8.344;2023-02-16T04:06:25;95206.53;;;0.89;67.83
37972;BME280;23794;48.234;8.344;2023-02-16T04:08:51;95201.91;;;0.90;68.06
37972;BME280;23794;48.234;8.344;2023-02-16T04:11:18;95197.44;;;0.85;67.65
37972;BME280;23794;48.234;8.344;2023-02-16T04:14:03;95202.84;;;0.85;67.52
37972;BME280;23794;48.234;8.344;2023-02-16T04:16:30;95203.31;;;0.79;67.81
37972;BME280;23794;48.234;8.344;2023-02-16T04:18:56;95200.47;;;0.75;68.07
37972;BME280;23794;48.234;8.344;2023-02-16T04:21:23;95201.38;;;0.62;68.26
37972;BME280;23794;48.234;8.344;2023-02-16T04:23:49;95198.34;;;0.63;67.90
37972;BME280;23794;48.234;8.344;2023-02-16T04:26:16;95199.16;;;0.64;67.92
37972;BME280;23794;48.234;8.344;2023-02-16T04:28:42;95194.84;;;0.63;67.89
37972;BME280;23794;48.234;8.344;2023-02-16T04:31:09;95199.16;;;0.64;67.69
37972;BME280;23794;48.234;8.344;2023-02-16T04:33:35;95193.59;;;0.60;68.25
37972;BME280;23794;48.234;8.344;2023-02-16T04:36:02;95203.06;;;0.49;68.00
37972;BME280;23794;48.234;8.344;2023-02-16T04:38:28;95203.34;;;0.38;68.67
37972;BME280;23794;48.234;8.344;2023-02-16T04:40:55;95204.59;;;0.32;68.80
37972;BME280;23794;48.234;8.344;2023-02-16T04:43:22;95207.72;;;0.25;68.84
37972;BME280;23794;48.234;8.344;2023-02-16T04:45:48;95207.25;;;0.23;68.53
37972;BME280;23794;48.234;8.344;2023-02-16T04:48:15;95207.25;;;0.23;68.64
37972;BME280;23794;48.234;8.344;2023-02-16T04:50:41;95207.13;;;0.29;68.40
37972;BME280;23794;48.234;8.344;2023-02-16T04:53:08;95210.72;;;0.24;68.47
37972;BME280;23794;48.234;8.344;2023-02-16T04:55:34;95209.78;;;0.20;69.02
37972;BME280;23794;48.234;8.344;2023-02-16T04:58:01;95211.16;;;0.17;69.18
37972;BME280;23794;48.234;8.344;2023-02-16T05:00:27;95216.38;;;0.14;68.93
37972;BME280;23794;48.234;8.344;2023-02-16T05:02:54;95215.28;;;0.15;68.89
37972;BME280;23794;48.234;8.344;2023-02-16T05:05:21;95200.69;;;0.16;68.60
37972;BME280;23794;48.234;8.344;2023-02-16T05:07:48;95207.88;;;0.20;68.29
37972;BME280;23794;48.234;8.344;2023-02-16T05:10:14;95213.56;;;0.19;68.67
37972;BME280;23794;48.234;8.344;2023-02-16T05:12:41;95211.47;;;0.16;68.82
37972;BME280;23794;48.234;8.344;2023-02-16T05:15:26;95213.22;;;0.12;68.94
37972;BME280;23794;48.234;8.344;2023-02-16T05:17:53;95219.53;;;0.07;69.21
37972;BME280;23794;48.234;8.344;2023-02-16T05:20:19;95219.06;;;0.14;68.91
37972;BME280;23794;48.234;8.344;2023-02-16T05:23:06;95211.94;;;0.09;68.72
37972;BME280;23794;48.234;8.344;2023-02-16T05:25:32;95214.13;;;0.07;68.88
37972;BME280;23794;48.234;8.344;2023-02-16T05:27:59;95218.38;;;-0.01;68.82
37972;BME280;23794;48.234;8.344;2023-02-16T05:30:25;95223.75;;;-0.01;68.93
37972;BME280;23794;48.234;8.344;2023-02-16T05:32:52;95225.06;;;0.02;69.00
37972;BME280;23794;48.234;8.344;2023-02-16T05:35:18;95215.56;;;0.04;69.28
37972;BME280;23794;48.234;8.344;2023-02-16T05:37:45;95222.47;;;-0.03;69.29
37972;BME280;23794;48.234;8.344;2023-02-16T05:40:12;95225.66;;;-0.01;69.65
37972;BME280;23794;48.234;8.344;2023-02-16T05:42:38;95217.44;;;0.04;69.39
37972;BME280;23794;48.234;8.344;2023-02-16T05:45:05;95221.72;;;0.05;69.91
37972;BME280;23794;48.234;8.344;2023-02-16T05:47:32;95228.91;;;0.09;69.49
37972;BME280;23794;48.234;8.344;2023-02-16T05:49:58;95224.53;;;0.22;68.79
37972;BME280;23794;48.234;8.344;2023-02-16T05:52:25;95218.69;;;0.29;68.80
37972;BME280;23794;48.234;8.344;2023-02-16T05:54:51;95222.97;;;0.30;68.54
37972;BME280;23794;48.234;8.344;2023-02-16T05:57:18;95231.53;;;0.32;68.87
37972;BME280;23794;48.234;8.344;2023-02-16T05:59:44;95237.06;;;0.27;69.19
37972;BME280;23794;48.234;8.344;2023-02-16T06:02:11;95235.81;;;0.24;69.04
37972;BME280;23794;48.234;8.344;2023-02-16T06:04:37;95239.78;;;0.27;68.87
37972;BME280;23794;48.234;8.344;2023-02-16T06:07:04;95241.31;;;0.19;69.83
37972;BME280;23794;48.234;8.344;2023-02-16T06:09:30;95250.38;;;0.23;69.54
37972;BME280;23794;48.234;8.344;2023-02-16T06:11:57;95248.59;;;0.19;69.60
37972;BME280;23794;48.234;8.344;2023-02-16T06:14:23;95244.47;;;0.13;69.67
37972;BME280;23794;48.234;8.344;2023-02-16T06:16:50;95250.81;;;0.17;69.60
37972;BME280;23794;48.234;8.344;2023-02-16T06:19:18;95248.59;;;0.19;69.57
37972;BME280;23794;48.234;8.344;2023-02-16T06:21:45;95249.53;;;0.14;70.08
37972;BME280;23794;48.234;8.344;2023-02-16T06:24:12;95252.22;;;0.14;69.36
37972;BME280;23794;48.234;8.344;2023-02-16T06:26:39;95253.31;;;0.13;69.12
37972;BME280;23794;48.234;8.344;2023-02-16T06:29:06;95266.38;;;0.20;68.97
37972;BME280;23794;48.234;8.344;2023-02-16T06:31:33;95254.00;;;0.19;69.36
37972;BME280;23794;48.234;8.344;2023-02-16T06:34:02;95259.38;;;0.19;68.93
37972;BME280;23794;48.234;8.344;2023-02-16T06:36:29;95254.56;;;0.07;69.26
37972;BME280;23794;48.234;8.344;2023-02-16T06:38:56;95257.25;;;0.07;68.94
37972;BME280;23794;48.234;8.344;2023-02-16T06:41:22;95255.22;;;0.13;68.83
37972;BME280;23794;48.234;8.344;2023-02-16T06:44:03;95260.66;;;0.21;68.67
37972;BME280;23794;48.234;8.344;2023-02-16T06:46:30;95255.94;;;0.27;68.27
37972;BME280;23794;48.234;8.344;2023-02-16T06:48:57;95244.13;;;0.14;68.62
37972;BME280;23794;48.234;8.344;2023-02-16T06:51:24;95251.72;;;0.12;68.42
37972;BME280;23794;48.234;8.344;2023-02-16T06:53:51;95253.19;;;0.18;68.41
37972;BME280;23794;48.234;8.344;2023-02-16T06:56:17;95256.56;;;0.24;68.27
37972;BME280;23794;48.234;8.344;2023-02-16T06:58:44;95256.56;;;0.24;68.20
37972;BME280;23794;48.234;8.344;2023-02-16T07:01:10;95258.88;;;0.17;69.52
37972;BME280;23794;48.234;8.344;2023-02-16T07:03:37;95256.78;;;0.14;68.77
37972;BME280;23794;48.234;8.344;2023-02-16T07:06:04;95258.56;;;0.18;68.32
37972;BME280;23794;48.234;8.344;2023-02-16T07:08:31;95258.47;;;0.23;68.52
37972;BME280;23794;48.234;8.344;2023-02-16T07:10:57;95259.25;;;0.24;68.50
37972;BME280;23794;48.234;8.344;2023-02-16T07:13:24;95265.91;;;0.26;69.37
37972;BME280;23794;48.234;8.344;2023-02-16T07:15:50;95263.88;;;0.32;68.82
37972;BME280;23794;48.234;8.344;2023-02-16T07:18:17;95260.94;;;0.42;68.21
37972;BME280;23794;48.234;8.344;2023-02-16T07:20:43;95268.09;;;0.47;68.25
37972;BME280;23794;48.234;8.344;2023-02-16T07:23:10;95264.34;;;0.57;68.11
37972;BME280;23794;48.234;8.344;2023-02-16T07:25:37;95271.84;;;0.69;67.95
37972;BME280;23794;48.234;8.344;2023-02-16T07:28:03;95273.63;;;0.82;67.80
37972;BME280;23794;48.234;8.344;2023-02-16T07:30:30;95269.81;;;0.83;68.17
37972;BME280;23794;48.234;8.344;2023-02-16T07:32:56;95268.75;;;0.93;67.90
37972;BME280;23794;48.234;8.344;2023-02-16T07:35:23;95271.13;;;0.95;67.60
37972;BME280;23794;48.234;8.344;2023-02-16T07:37:49;95275.09;;;0.97;67.45
37972;BME280;23794;48.234;8.344;2023-02-16T07:40:16;95276.91;;;1.11;66.65
37972;BME280;23794;48.234;8.344;2023-02-16T07:42:43;95272.59;;;1.18;66.85
37972;BME280;23794;48.234;8.344;2023-02-16T07:45:09;95283.09;;;1.20;66.10
37972;BME280;23794;48.234;8.344;2023-02-16T07:47:36;95272.00;;;1.21;66.97
37972;BME280;23794;48.234;8.344;2023-02-16T07:50:03;95285.19;;;1.32;65.95
37972;BME280;23794;48.234;8.344;2023-02-16T07:52:29;95279.16;;;1.44;64.97
37972;BME280;23794;48.234;8.344;2023-02-16T07:54:57;95292.69;;;1.52;65.12
37972;BME280;23794;48.234;8.344;2023-02-16T07:57:25;95291.25;;;1.64;64.13
37972;BME280;23794;48.234;8.344;2023-02-16T07:59:52;95299.84;;;1.75;64.40
37972;BME280;23794;48.234;8.344;2023-02-16T08:02:20;95300.31;;;1.85;63.62
37972;BME280;23794;48.234;8.344;2023-02-16T08:04:48;95295.09;;;1.98;63.46
37972;BME280;23794;48.234;8.344;2023-02-16T08:07:16;95293.31;;;2.11;63.14
37972;BME280;23794;48.234;8.344;2023-02-16T08:09:43;95293.91;;;2.25;62.67
37972;BME280;23794;48.234;8.344;2023-02-16T08:12:12;95299.97;;;2.40;62.02
37972;BME280;23794;48.234;8.344;2023-02-16T08:14:39;95296.56;;;2.52;62.35
37972;BME280;23794;48.234;8.344;2023-02-16T08:17:06;95299.56;;;2.59;61.87
37972;BME280;23794;48.234;8.344;2023-02-16T08:19:35;95300.81;;;2.70;61.41
37972;BME280;23794;48.234;8.344;2023-02-16T08:22:06;95297.44;;;2.82;60.96
37972;BME280;23794;48.234;8.344;2023-02-16T08:24:33;95300.63;;;2.84;60.59
37972;BME280;23794;48.234;8.344;2023-02-16T08:27:04;95301.84;;;2.95;60.29
37972;BME280;23794;48.234;8.344;2023-02-16T08:29:31;95297.13;;;3.13;60.48
37972;BME280;23794;48.234;8.344;2023-02-16T08:31:59;95300.28;;;3.24;60.13
37972;BME280;23794;48.234;8.344;2023-02-16T08:34:26;95293.66;;;3.43;59.75
37972;BME280;23794;48.234;8.344;2023-02-16T08:36:54;95291.28;;;3.63;58.88
37972;BME280;23794;48.234;8.344;2023-02-16T08:39:24;95290.69;;;3.78;58.54
37972;BME280;23794;48.234;8.344;2023-02-16T08:41:52;95292.59;;;3.99;58.52
37972;BME280;23794;48.234;8.344;2023-02-16T08:44:21;95290.53;;;4.17;57.78
37972;BME280;23794;48.234;8.344;2023-02-16T08:46:50;95292.41;;;4.37;57.32
37972;BME280;23794;48.234;8.344;2023-02-16T08:49:18;95294.63;;;4.57;57.03
37972;BME280;23794;48.234;8.344;2023-02-16T08:51:49;95290.13;;;4.73;57.12
37972;BME280;23794;48.234;8.344;2023-02-16T08:54:19;95296.59;;;4.93;57.01
37972;BME280;23794;48.234;8.344;2023-02-16T08:56:46;95283.19;;;5.09;56.14
37972;BME280;23794;48.234;8.344;2023-02-16T08:59:15;95281.81;;;5.28;55.68
37972;BME280;23794;48.234;8.344;2023-02-16T09:01:43;95280.34;;;5.43;55.06
37972;BME280;23794;48.234;8.344;2023-02-16T09:04:10;95281.03;;;5.52;54.51
37972;BME280;23794;48.234;8.344;2023-02-16T09:06:39;95278.63;;;5.63;54.64
37972;BME280;23794;48.234;8.344;2023-02-16T09:09:07;95270.78;;;5.74;54.97
37972;BME280;23794;48.234;8.344;2023-02-16T09:11:35;95276.63;;;5.88;54.69
37972;BME280;23794;48.234;8.344;2023-02-16T09:14:02;95275.44;;;6.02;54.66
37972;BME280;23794;48.234;8.344;2023-02-16T09:16:30;95278.88;;;6.27;53.49
37972;BME280;23794;48.234;8.344;2023-02-16T09:19:01;95276.72;;;6.49;53.06
37972;BME280;23794;48.234;8.344;2023-02-16T09:21:29;95269.03;;;6.67;51.87
37972;BME280;23794;48.234;8.344;2023-02-16T09:24:01;95276.09;;;6.84;52.23
37972;BME280;23794;48.234;8.344;2023-02-16T09:26:32;95285.94;;;7.04;50.85
37972;BME280;23794;48.234;8.344;2023-02-16T09:29:00;95286.53;;;7.30;49.62
37972;BME280;23794;48.234;8.344;2023-02-16T09:31:30;95278.78;;;7.48;48.97
37972;BME280;23794;48.234;8.344;2023-02-16T09:34:18;95279.56;;;7.64;49.63
37972;BME280;23794;48.234;8.344;2023-02-16T09:36:45;95279.50;;;7.80;49.17
37972;BME280;23794;48.234;8.344;2023-02-16T09:39:13;95280.25;;;7.97;48.80
37972;BME280;23794;48.234;8.344;2023-02-16T09:46:45;95276.53;;;8.67;40.76
37972;BME280;23794;48.234;8.344;2023-02-16T09:49:27;95270.28;;;8.90;40.93
37972;BME280;23794;48.234;8.344;2023-02-16T09:54:46;95265.56;;;9.10;41.28
37972;BME280;23794;48.234;8.344;2023-02-16T09:57:26;95262.47;;;9.12;38.96
37972;BME280;23794;48.234;8.344;2023-02-16T10:06:05;95253.19;;;9.40;39.50
37972;BME280;23794;48.234;8.344;2023-02-16T10:08:38;95254.22;;;9.58;39.11
37972;BME280;23794;48.234;8.344;2023-02-16T10:11:19;95262.31;;;9.78;38.00
37972;BME280;23794;48.234;8.344;2023-02-16T10:17:33;95254.94;;;10.13;36.06
37972;BME280;23794;48.234;8.344;2023-02-16T10:25:45;95245.91;;;10.43;35.40
37972;BME280;23794;48.234;8.344;2023-02-16T10:28:20;95253.53;;;10.26;34.91
37972;BME280;23794;48.234;8.344;2023-02-16T10:31:00;95252.53;;;10.41;34.88
37972;BME280;23794;48.234;8.344;2023-02-16T10:36:49;95242.84;;;10.89;34.32
37972;BME280;23794;48.234;8.344;2023-02-16T10:39:50;95244.19;;;11.06;33.38
37972;BME280;23794;48.234;8.344;2023-02-16T10:42:38;95247.50;;;11.26;33.12
37972;BME280;23794;48.234;8.344;2023-02-16T10:45:41;95249.16;;;11.42;32.93
37972;BME280;23794;48.234;8.344;2023-02-16T10:48:11;95242.28;;;11.70;34.12
37972;BME280;23794;48.234;8.344;2023-02-16T10:50:39;95247.06;;;11.80;33.04
37972;BME280;23794;48.234;8.344;2023-02-16T10:53:23;95246.66;;;11.78;33.42
37972;BME280;23794;48.234;8.344;2023-02-16T10:55:56;95235.63;;;11.71;32.46
37972;BME280;23794;48.234;8.344;2023-02-16T10:58:25;95236.41;;;11.71;32.25
37972;BME280;23794;48.234;8.344;2023-02-16T11:01:02;95231.47;;;11.98;32.58
37972;BME280;23794;48.234;8.344;2023-02-16T11:03:38;95232.31;;;12.10;32.10
37972;BME280;23794;48.234;8.344;2023-02-16T11:06:21;95233.88;;;12.18;32.55
37972;BME280;23794;48.234;8.344;2023-02-16T11:08:56;95234.97;;;11.95;31.36
37972;BME280;23794;48.234;8.344;2023-02-16T11:11:28;95234.66;;;12.08;32.84
37972;BME280;23794;48.234;8.344;2023-02-16T11:14:02;95233.44;;;12.02;32.86
37972;BME280;23794;48.234;8.344;2023-02-16T11:16:29;95236.56;;;12.04;33.67
37972;BME280;23794;48.234;8.344;2023-02-16T11:19:02;95231.50;;;12.13;33.13
37972;BME280;23794;48.234;8.344;2023-02-16T11:21:49;95227.97;;;12.05;33.56
37972;BME280;23794;48.234;8.344;2023-02-16T11:24:36;95228.84;;;12.31;33.89
37972;BME280;23794;48.234;8.344;2023-02-16T11:27:17;95223.75;;;12.37;31.81
37972;BME280;23794;48.234;8.344;2023-02-16T11:29:44;95216.75;;;12.46;32.30
37972;BME280;23794;48.234;8.344;2023-02-16T11:32:13;95212.44;;;12.56;31.86
37972;BME280;23794;48.234;8.344;2023-02-16T11:39:50;95208.16;;;12.66;32.50
37972;BME280;23794;48.234;8.344;2023-02-16T11:42:29;95207.78;;;12.71;32.31
37972;BME280;23794;48.234;8.344;2023-02-16T11:44:59;95193.28;;;12.92;31.94
37972;BME280;23794;48.234;8.344;2023-02-16T11:47:31;95189.34;;;13.04;30.96
37972;BME280;23794;48.234;8.344;2023-02-16T11:50:18;95179.88;;;13.38;31.00
37972;BME280;23794;48.234;8.344;2023-02-16T11:52:46;95188.50;;;13.43;31.87
37972;BME280;23794;48.234;8.344;2023-02-16T11:55:24;95192.41;;;13.82;30.81
37972;BME280;23794;48.234;8.344;2023-02-16T11:57:52;95174.25;;;13.92;31.47
37972;BME280;23794;48.234;8.344;2023-02-16T12:00:22;95169.19;;;13.62;30.35
37972;BME280;23794;48.234;8.344;2023-02-16T12:05:41;95179.47;;;13.47;31.55
37972;BME280;23794;48.234;8.344;2023-02-16T12:10:44;95176.78;;;12.92;32.08
37972;BME280;23794;48.234;8.344;2023-02-16T12:13:35;95174.78;;;12.71;33.19
37972;BME280;23794;48.234;8.344;2023-02-16T12:22:05;95179.38;;;12.31;33.84
37972;BME280;23794;48.234;8.344;2023-02-16T12:30:57;95167.13;;;11.99;34.73
37972;BME280;23794;48.234;8.344;2023-02-16T12:39:22;95180.09;;;11.99;35.59
37972;BME280;23794;48.234;8.344;2023-02-16T12:44:42;95169.00;;;11.77;36.81
37972;BME280;23794;48.234;8.344;2023-02-16T12:47:22;95165.88;;;11.75;37.34
37972;BME280;23794;48.234;8.344;2023-02-16T12:49:53;95165.94;;;11.93;36.98
37972;BME280;23794;48.234;8.344;2023-02-16T12:58:07;95153.78;;;11.87;36.61
37972;BME280;23794;48.234;8.344;2023-02-16T13:00:43;95160.78;;;11.81;37.44
37972;BME280;23794;48.234;8.344;2023-02-16T13:03:39;95153.41;;;11.99;38.27
37972;BME280;23794;48.234;8.344;2023-02-16T13:06:17;95151.84;;;11.98;36.60
37972;BME280;23794;48.234;8.344;2023-02-16T13:11:55;95142.97;;;12.45;35.88
37972;BME280;23794;48.234;8.344;2023-02-16T13:14:27;95137.06;;;12.54;35.53
37972;BME280;23794;48.234;8.344;2023-02-16T13:16:58;95129.63;;;12.47;34.30
37972;BME280;23794;48.234;8.344;2023-02-16T13:19:27;95137.81;;;12.29;34.76
37972;BME280;23794;48.234;8.344;2023-02-16T13:27:31;95136.72;;;12.77;34.14
37972;BME280;23794;48.234;8.344;2023-02-16T13:36:20;95132.22;;;11.96;35.51
37972;BME280;23794;48.234;8.344;2023-02-16T13:44:53;95123.34;;;12.54;34.66
37972;BME280;23794;48.234;8.344;2023-02-16T13:47:26;95122.97;;;12.52;34.07
37972;BME280;23794;48.234;8.344;2023-02-16T13:49:56;95121.38;;;12.40;34.40
37972;BME280;23794;48.234;8.344;2023-02-16T13:52:38;95117.00;;;12.28;35.16
37972;BME280;23794;48.234;8.344;2023-02-16T13:55:33;95118.56;;;12.22;35.02
37972;BME280;23794;48.234;8.344;2023-02-16T13:58:05;95122.44;;;12.06;35.08
37972;BME280;23794;48.234;8.344;2023-02-16T14:00:36;95124.00;;;12.11;34.72
37972;BME280;23794;48.234;8.344;2023-02-16T14:03:33;95126.38;;;12.09;33.96
37972;BME280;23794;48.234;8.344;2023-02-16T14:06:37;95123.63;;;12.09;35.40
37972;BME280;23794;48.234;8.344;2023-02-16T14:22:21;95129.25;;;11.46;36.01
37972;BME280;23794;48.234;8.344;2023-02-16T14:24:55;95130.09;;;11.50;36.92
37972;BME280;23794;48.234;8.344;2023-02-16T14:28:04;95128.13;;;11.54;36.66
37972;BME280;23794;48.234;8.344;2023-02-16T14:35:47;95129.69;;;11.51;36.12
37972;BME280;23794;48.234;8.344;2023-02-16T14:38:57;95128.13;;;11.54;36.13
37972;BME280;23794;48.234;8.344;2023-02-16T14:41:30;95133.16;;;11.41;36.31
37972;BME280;23794;48.234;8.344;2023-02-16T14:44:07;95126.44;;;11.31;37.21
37972;BME280;23794;48.234;8.344;2023-02-16T14:47:10;95137.81;;;11.33;36.42
37972;BME280;23794;48.234;8.344;2023-02-16T14:54:01;95142.09;;;11.27;37.34
37972;BME280;23794;48.234;8.344;2023-02-16T14:59:36;95138.44;;;11.05;37.68
37972;BME280;23794;48.234;8.344;2023-02-16T15:02:24;95137.56;;;10.97;38.42
37972;BME280;23794;48.234;8.344;2023-02-16T15:04:51;95141.16;;;11.01;37.81
37972;BME280;23794;48.234;8.344;2023-02-16T15:07:18;95144.97;;;10.93;38.41
37972;BME280;23794;48.234;8.344;2023-02-16T15:09:48;95146.94;;;10.93;39.73
37972;BME280;23794;48.234;8.344;2023-02-16T15:12:36;95147.25;;;10.84;39.23
37972;BME280;23794;48.234;8.344;2023-02-16T15:15:05;95140.91;;;10.72;39.69
37972;BME280;23794;48.234;8.344;2023-02-16T15:17:42;95139.72;;;10.70;39.86
37972;BME280;23794;48.234;8.344;2023-02-16T15:20:30;95138.31;;;10.46;40.14
37972;BME280;23794;48.234;8.344;2023-02-16T15:23:05;95130.47;;;10.44;40.11
37972;BME280;23794;48.234;8.344;2023-02-16T15:25:38;95130.22;;;10.60;40.31
37972;BME280;23794;48.234;8.344;2023-02-16T15:30:39;95134.59;;;10.68;40.73
37972;BME280;23794;48.234;8.344;2023-02-16T15:33:27;95136.13;;;10.66;41.28
37972;BME280;23794;48.234;8.344;2023-02-16T15:35:57;95133.38;;;10.62;40.84
37972;BME280;23794;48.234;8.344;2023-02-16T15:38:34;95134.84;;;10.52;41.21
37972;BME280;23794;48.234;8.344;2023-02-16T15:41:12;95126.22;;;10.50;41.35
37972;BME280;23794;48.234;8.344;2023-02-16T15:46:31;95116.34;;;10.38;42.85
37972;BME280;23794;48.234;8.344;2023-02-16T15:49:00;95121.31;;;10.29;42.45
37972;BME280;23794;48.234;8.344;2023-02-16T15:51:36;95129.78;;;10.13;42.06
37972;BME280;23794;48.234;8.344;2023-02-16T15:54:07;95127.81;;;10.10;43.13
37972;BME280;23794;48.234;8.344;2023-02-16T15:56:45;95110.41;;;9.91;43.87
37972;BME280;23794;48.234;8.344;2023-02-16T15:59:32;95121.72;;;9.90;44.87